Time;durP1;ratioP1;P1;durP2;ratioP2;P2;SDS_P1;SDS_P2;PMS_P1;PMS_P2;Temp;Humidity;BMP_temperature;BMP_pressure;BME280_temperature;BME280_humidity;BME280_pressure;Samples;Min_cycle;Max_cycle;Signal;HPM_P1;HPM_P2
2022/06/24 00:00:29;;;;;;;0.70;0.60;;;;;;;;;;5053661;28;20408;-83
2022/06/24 00:02:59;;;;;;;0.70;0.60;;;;;;;;;;5053348;28;20466;-84
2022/06/24 00:05:27;;;;;;;0.90;0.80;;;;;;;;;;5036107;28;21001;-84
2022/06/24 00:07:54;;;;;;;0.80;0.70;;;;;;;;;;5070291;28;20466;-80
2022/06/24 00:10:22;;;;;;;0.70;0.70;;;;;;;;;;5073265;28;20461;-82
2022/06/24 00:12:49;;;;;;;0.70;0.70;;;;;;;;;;5054783;28;21026;-83
2022/06/24 00:15:23;;;;;;;0.70;0.60;;;;;;;;;;5052569;28;20448;-83
2022/06/24 00:17:50;;;;;;;0.70;0.70;;;;;;;;;;5053876;28;20441;-81
2022/06/24 00:20:18;;;;;;;0.70;0.60;;;;;;;;;;5057279;28;20486;-81
2022/06/24 00:22:47;;;;;;;1.37;0.93;;;;;;;;;;5062402;28;20467;-81
2022/06/24 00:25:14;;;;;;;0.70;0.63;;;;;;;;;;5053327;28;20415;-80
2022/06/24 00:27:41;;;;;;;0.70;0.60;;;;;;;;;;5053092;28;20428;-79
2022/06/24 00:30:13;;;;;;;0.70;0.60;;;;;;;;;;5059098;28;20430;-78
2022/06/24 00:32:42;;;;;;;0.70;0.60;;;;;;;;;;5071348;28;20413;-80
2022/06/24 00:35:14;;;;;;;0.70;0.70;;;;;;;;;;5064527;28;20444;-77
2022/06/24 00:37:41;;;;;;;0.70;0.60;;;;;;;;;;5052197;28;20561;-77
2022/06/24 00:40:24;;;;;;;0.70;0.60;;;;;;;;;;5052453;28;20448;-79
2022/06/24 00:42:51;;;;;;;0.70;0.70;;;;;;;;;;5066619;28;20478;-79
2022/06/24 00:45:23;;;;;;;0.70;0.60;;;;;;;;;;5051895;28;20450;-75
2022/06/24 00:47:53;;;;;;;0.70;0.70;;;;;;;;;;5064616;28;20423;-76
2022/06/24 00:50:21;;;;;;;0.70;0.70;;;;;;;;;;5073486;28;20947;-79
2022/06/24 00:52:50;;;;;;;0.70;0.63;;;;;;;;;;5072032;28;20504;-78
2022/06/24 00:55:18;;;;;;;0.70;0.70;;;;;;;;;;5069285;28;20500;-77
2022/06/24 00:57:45;;;;;;;0.70;0.60;;;;;;;;;;5053434;28;20886;-80
2022/06/24 01:00:12;;;;;;;0.70;0.60;;;;;;;;;;5062131;28;20436;-79
2022/06/24 01:02:40;;;;;;;0.70;0.60;;;;;;;;;;5052486;28;20463;-80
2022/06/24 01:05:13;;;;;;;0.70;0.60;;;;;;;;;;5035699;28;20493;-76
2022/06/24 01:07:42;;;;;;;0.80;0.70;;;;;;;;;;5062617;28;20469;-78
2022/06/24 01:10:11;;;;;;;0.70;0.70;;;;;;;;;;5067524;28;20448;-78
2022/06/24 01:12:39;;;;;;;0.70;0.60;;;;;;;;;;5052799;28;20917;-79
2022/06/24 01:15:07;;;;;;;0.70;0.60;;;;;;;;;;5051856;28;20773;-77
2022/06/24 01:17:37;;;;;;;0.70;0.70;;;;;;;;;;5051745;28;20432;-79
2022/06/24 01:20:07;;;;;;;0.70;0.70;;;;;;;;;;5038363;28;20436;-79
2022/06/24 01:22:36;;;;;;;0.70;0.67;;;;;;;;;;5052956;28;20464;-76
2022/06/24 01:25:03;;;;;;;0.70;0.60;;;;;;;;;;5053482;28;20787;-79
2022/06/24 01:27:31;;;;;;;0.70;0.60;;;;;;;;;;5069005;28;20472;-79
2022/06/24 01:29:59;;;;;;;0.70;0.70;;;;;;;;;;5073322;28;20496;-79
2022/06/24 01:32:28;;;;;;;0.77;0.70;;;;;;;;;;5055137;28;20527;-77
2022/06/24 01:34:56;;;;;;;0.70;0.70;;;;;;;;;;5072285;28;20500;-78
2022/06/24 01:37:23;;;;;;;0.70;0.60;;;;;;;;;;5063885;28;20498;-78
2022/06/24 01:39:51;;;;;;;0.70;0.67;;;;;;;;;;5071961;28;20464;-78
2022/06/24 01:42:20;;;;;;;0.70;0.70;;;;;;;;;;5071951;28;20438;-77
2022/06/24 01:44:47;;;;;;;0.70;0.70;;;;;;;;;;5072154;28;20423;-77
2022/06/24 01:47:15;;;;;;;0.70;0.60;;;;;;;;;;5070330;28;20489;-76
2022/06/24 01:49:44;;;;;;;0.70;0.60;;;;;;;;;;5051293;28;20513;-78
2022/06/24 01:52:14;;;;;;;0.70;0.60;;;;;;;;;;5059102;28;20563;-77
2022/06/24 01:54:42;;;;;;;0.70;0.70;;;;;;;;;;5064471;28;20970;-77
2022/06/24 01:57:13;;;;;;;0.70;0.60;;;;;;;;;;5052893;28;20428;-77
2022/06/24 01:59:42;;;;;;;0.80;0.80;;;;;;;;;;5052600;28;20513;-79
2022/06/24 02:02:09;;;;;;;0.70;0.63;;;;;;;;;;5051774;28;20444;-77
2022/06/24 02:04:39;;;;;;;0.70;0.60;;;;;;;;;;5054898;28;20462;-78
2022/06/24 02:07:10;;;;;;;0.70;0.60;;;;;;;;;;5070425;28;20466;-77
2022/06/24 02:15:18;;;;;;;0.80;0.80;;;;;;;;;;5055907;28;20462;-77
2022/06/24 02:17:47;;;;;;;0.70;0.70;;;;;;;;;;5038721;28;20476;-77
2022/06/24 02:20:17;;;;;;;0.70;0.70;;;;;;;;;;5064894;28;20431;-77
2022/06/24 02:22:45;;;;;;;0.70;0.60;;;;;;;;;;5076098;28;20888;-77
2022/06/24 02:25:14;;;;;;;1.17;0.90;;;;;;;;;;5075206;28;20449;-77
2022/06/24 02:27:48;;;;;;;0.60;0.60;;;;;;;;;;5073077;28;20455;-76
2022/06/24 02:30:18;;;;;;;0.70;0.60;;;;;;;;;;5062630;28;20859;-76
2022/06/24 02:32:45;;;;;;;0.70;0.60;;;;;;;;;;5075433;28;20465;-76
2022/06/24 02:35:12;;;;;;;0.70;0.60;;;;;;;;;;5074513;28;20450;-76
2022/06/24 02:37:39;;;;;;;0.70;0.60;;;;;;;;;;5056831;28;20460;-76
2022/06/24 02:42:57;;;;;;;3.13;0.90;;;;;;;;;;5071794;28;20523;-75
2022/06/24 02:45:24;;;;;;;0.70;0.70;;;;;;;;;;5054942;28;20523;-76
2022/06/24 02:47:51;;;;;;;0.70;0.60;;;;;;;;;;5054335;28;21075;-76
2022/06/24 02:50:18;;;;;;;0.70;0.60;;;;;;;;;;5055904;28;20427;-76
2022/06/24 02:52:44;;;;;;;0.70;0.70;;;;;;;;;;5054900;28;20464;-76
2022/06/24 02:55:11;;;;;;;1.33;0.90;;;;;;;;;;5064577;28;20557;-76
2022/06/24 02:57:38;;;;;;;0.70;0.70;;;;;;;;;;5054763;28;20442;-76
2022/06/24 03:00:07;;;;;;;0.70;0.60;;;;;;;;;;5057132;28;21009;-75
2022/06/24 03:02:33;;;;;;;0.70;0.70;;;;;;;;;;5062675;28;20443;-76
2022/06/24 03:05:00;;;;;;;0.60;0.60;;;;;;;;;;5064807;28;20439;-76
2022/06/24 03:07:27;;;;;;;0.70;0.70;;;;;;;;;;5075134;28;20458;-77
2022/06/24 03:09:54;;;;;;;0.60;0.60;;;;;;;;;;5052824;28;20950;-76
2022/06/24 03:12:21;;;;;;;0.70;0.60;;;;;;;;;;5074247;28;20783;-76
2022/06/24 03:14:48;;;;;;;0.77;0.73;;;;;;;;;;5071149;28;20434;-75
2022/06/24 03:17:17;;;;;;;0.60;0.60;;;;;;;;;;5055971;28;20433;-75
2022/06/24 03:19:44;;;;;;;0.70;0.60;;;;;;;;;;5055201;28;20445;-76
2022/06/24 03:22:11;;;;;;;0.70;0.70;;;;;;;;;;5054273;28;20472;-76
2022/06/24 03:24:37;;;;;;;0.90;0.77;;;;;;;;;;5054800;28;20963;-76
2022/06/24 03:27:05;;;;;;;0.70;0.70;;;;;;;;;;5064896;28;20470;-76
2022/06/24 03:29:31;;;;;;;0.60;0.60;;;;;;;;;;5061486;28;20486;-76
2022/06/24 03:31:58;;;;;;;0.70;0.60;;;;;;;;;;5071981;28;20450;-75
2022/06/24 03:34:29;;;;;;;0.70;0.50;;;;;;;;;;5074141;28;20799;-76
2022/06/24 03:36:56;;;;;;;0.70;0.60;;;;;;;;;;5074486;28;20547;-76
2022/06/24 03:39:23;;;;;;;0.70;0.70;;;;;;;;;;5070904;28;20549;-76
2022/06/24 03:41:49;;;;;;;0.60;0.60;;;;;;;;;;5075244;28;20469;-76
2022/06/24 03:44:16;;;;;;;0.70;0.63;;;;;;;;;;5073755;28;20466;-76
2022/06/24 03:46:43;;;;;;;0.60;0.60;;;;;;;;;;5053022;28;20439;-76
2022/06/24 03:49:10;;;;;;;1.23;0.73;;;;;;;;;;5056054;28;20800;-76
2022/06/24 03:51:38;;;;;;;0.70;0.60;;;;;;;;;;5053628;28;20436;-76
2022/06/24 03:54:05;;;;;;;0.70;0.60;;;;;;;;;;5053009;28;20440;-76
2022/06/24 03:56:31;;;;;;;0.80;0.80;;;;;;;;;;5060117;28;20439;-76
2022/06/24 03:58:58;;;;;;;0.70;0.60;;;;;;;;;;5054199;28;20452;-76
2022/06/24 04:01:25;;;;;;;0.60;0.60;;;;;;;;;;5053354;28;20432;-75
2022/06/24 04:03:55;;;;;;;0.70;0.60;;;;;;;;;;5061823;28;20463;-76
2022/06/24 04:06:22;;;;;;;0.70;0.70;;;;;;;;;;5072622;28;20967;-76
2022/06/24 04:08:52;;;;;;;0.70;0.60;;;;;;;;;;5060659;28;20462;-75
2022/06/24 04:11:19;;;;;;;0.70;0.60;;;;;;;;;;5053492;28;20484;-75
2022/06/24 04:13:45;;;;;;;0.70;0.70;;;;;;;;;;5073845;28;20419;-75
2022/06/24 04:16:13;;;;;;;0.63;0.60;;;;;;;;;;5074408;28;20413;-75
2022/06/24 04:18:40;;;;;;;0.70;0.70;;;;;;;;;;5063438;28;20479;-75
2022/06/24 04:21:10;;;;;;;0.70;0.63;;;;;;;;;;5052170;28;20500;-74
2022/06/24 04:23:37;;;;;;;0.80;0.80;;;;;;;;;;5067753;28;20467;-75
2022/06/24 04:26:05;;;;;;;0.70;0.70;;;;;;;;;;5067013;28;20488;-75
2022/06/24 04:28:31;;;;;;;0.70;0.63;;;;;;;;;;5052167;28;20464;-75
2022/06/24 04:30:58;;;;;;;0.70;0.60;;;;;;;;;;5052532;28;20955;-75
2022/06/24 04:33:25;;;;;;;0.80;0.80;;;;;;;;;;5051359;28;20447;-75
2022/06/24 04:35:52;;;;;;;0.70;0.70;;;;;;;;;;5052249;28;20539;-74
2022/06/24 04:38:19;;;;;;;0.70;0.63;;;;;;;;;;5071620;28;20428;-74
2022/06/24 04:40:46;;;;;;;0.60;0.60;;;;;;;;;;5072211;28;20502;-76
2022/06/24 04:43:14;;;;;;;0.60;0.60;;;;;;;;;;5073726;28;20979;-75
2022/06/24 04:45:42;;;;;;;0.60;0.60;;;;;;;;;;5073300;28;20439;-75
2022/06/24 04:48:10;;;;;;;0.60;0.60;;;;;;;;;;5065793;28;20501;-73
2022/06/24 04:50:37;;;;;;;1.00;0.90;;;;;;;;;;5063553;28;20514;-75
2022/06/24 04:53:11;;;;;;;0.70;0.60;;;;;;;;;;5053976;28;20416;-74
2022/06/24 04:55:38;;;;;;;1.87;1.00;;;;;;;;;;5054883;28;20451;-75
2022/06/24 04:58:05;;;;;;;0.60;0.60;;;;;;;;;;5063341;28;20542;-74
2022/06/24 05:00:33;;;;;;;0.70;0.70;;;;;;;;;;5058390;28;20497;-74
2022/06/24 05:03:00;;;;;;;0.60;0.60;;;;;;;;;;5072943;28;20473;-75
2022/06/24 05:05:29;;;;;;;0.70;0.70;;;;;;;;;;5072744;28;20454;-73
2022/06/24 05:07:56;;;;;;;0.90;0.90;;;;;;;;;;5071468;28;20941;-75
2022/06/24 05:10:26;;;;;;;0.60;0.60;;;;;;;;;;5073692;28;20435;-75
2022/06/24 05:12:53;;;;;;;0.70;0.60;;;;;;;;;;5072303;28;20435;-75
2022/06/24 05:15:19;;;;;;;0.60;0.60;;;;;;;;;;5056101;28;20549;-75
2022/06/24 05:17:48;;;;;;;0.70;0.70;;;;;;;;;;5053689;28;20445;-75
2022/06/24 05:20:15;;;;;;;1.23;1.03;;;;;;;;;;5066166;28;20939;-74
2022/06/24 05:22:42;;;;;;;0.70;0.50;;;;;;;;;;5073060;28;20852;-75
2022/06/24 05:25:09;;;;;;;0.70;0.60;;;;;;;;;;5072416;28;20509;-74
2022/06/24 05:27:36;;;;;;;0.70;0.60;;;;;;;;;;5057538;28;20512;-74
2022/06/24 05:30:04;;;;;;;0.70;0.70;;;;;;;;;;5053453;28;20515;-74
2022/06/24 05:32:31;;;;;;;0.80;0.80;;;;;;;;;;5067292;28;20445;-74
2022/06/24 05:35:00;;;;;;;0.80;0.80;;;;;;;;;;5072553;28;20437;-74
2022/06/24 05:37:27;;;;;;;0.63;0.60;;;;;;;;;;5067943;28;20802;-73
2022/06/24 05:39:54;;;;;;;1.63;1.10;;;;;;;;;;5051035;28;20459;-74
2022/06/24 05:42:21;;;;;;;0.60;0.60;;;;;;;;;;5051752;28;20439;-74
2022/06/24 05:44:49;;;;;;;0.70;0.60;;;;;;;;;;5053806;28;20465;-74
2022/06/24 05:47:16;;;;;;;0.70;0.70;;;;;;;;;;5062591;28;20430;-74
2022/06/24 05:49:43;;;;;;;0.70;0.60;;;;;;;;;;5076380;28;20433;-75
2022/06/24 05:52:11;;;;;;;0.70;0.70;;;;;;;;;;5075092;28;20460;-74
2022/06/24 05:57:23;;;;;;;0.70;0.60;;;;;;;;;;5073027;28;20450;-74
2022/06/24 05:59:50;;;;;;;0.70;0.60;;;;;;;;;;5067050;28;20566;-73
2022/06/24 06:02:22;;;;;;;0.80;0.80;;;;;;;;;;5074572;28;21006;-74
2022/06/24 06:04:49;;;;;;;1.43;1.03;;;;;;;;;;5066531;28;20466;-74
2022/06/24 06:07:19;;;;;;;0.70;0.60;;;;;;;;;;5084642;28;20467;-74
2022/06/24 06:09:46;;;;;;;0.70;0.70;;;;;;;;;;5071199;28;20471;-75
2022/06/24 06:12:12;;;;;;;0.70;0.60;;;;;;;;;;5057353;28;20486;-74
2022/06/24 06:14:41;;;;;;;0.60;0.50;;;;;;;;;;5056244;28;20434;-74
2022/06/24 06:17:08;;;;;;;0.70;0.60;;;;;;;;;;5055538;28;20446;-75
2022/06/24 06:19:35;;;;;;;1.00;0.90;;;;;;;;;;5054869;28;20410;-75
2022/06/24 06:22:03;;;;;;;0.60;0.60;;;;;;;;;;5055042;28;20514;-75
2022/06/24 06:24:32;;;;;;;0.63;0.60;;;;;;;;;;5055178;28;20518;-75
2022/06/24 06:26:59;;;;;;;0.70;0.67;;;;;;;;;;5057859;28;20481;-75
2022/06/24 06:29:26;;;;;;;0.70;0.70;;;;;;;;;;5056393;28;20485;-75
2022/06/24 06:31:55;;;;;;;0.70;0.60;;;;;;;;;;5054102;28;20498;-75
2022/06/24 06:34:24;;;;;;;0.70;0.60;;;;;;;;;;5054619;28;20434;-75
2022/06/24 06:36:53;;;;;;;0.70;0.70;;;;;;;;;;5047549;28;20504;-75
2022/06/24 06:39:19;;;;;;;0.70;0.70;;;;;;;;;;5076384;28;20414;-75
2022/06/24 06:41:49;;;;;;;0.80;0.80;;;;;;;;;;5075122;28;20789;-75
2022/06/24 06:44:16;;;;;;;1.47;1.37;;;;;;;;;;5069777;28;20467;-75
2022/06/24 06:46:43;;;;;;;1.47;1.37;;;;;;;;;;5059118;28;20465;-75
2022/06/24 06:49:13;;;;;;;0.70;0.70;;;;;;;;;;5055886;28;20916;-75
2022/06/24 06:51:39;;;;;;;0.70;0.70;;;;;;;;;;5055468;28;20447;-75
2022/06/24 06:54:06;;;;;;;0.97;0.80;;;;;;;;;;5066121;28;20452;-75
2022/06/24 06:56:33;;;;;;;0.70;0.70;;;;;;;;;;5055580;28;20511;-75
2022/06/24 06:59:01;;;;;;;0.70;0.60;;;;;;;;;;5058827;28;20930;-75
2022/06/24 07:01:27;;;;;;;0.80;0.70;;;;;;;;;;5056221;28;20431;-75
2022/06/24 07:03:57;;;;;;;0.70;0.70;;;;;;;;;;5055916;28;20483;-76
2022/06/24 07:06:24;;;;;;;0.70;0.70;;;;;;;;;;5061009;28;20463;-75
2022/06/24 07:08:51;;;;;;;0.70;0.60;;;;;;;;;;5075230;28;20526;-76
2022/06/24 07:11:19;;;;;;;0.70;0.60;;;;;;;;;;5075794;28;20431;-76
2022/06/24 07:13:45;;;;;;;0.70;0.70;;;;;;;;;;5075876;28;20410;-76
2022/06/24 07:16:16;;;;;;;0.70;0.70;;;;;;;;;;5075711;28;20407;-76
2022/06/24 07:18:43;;;;;;;2.00;1.73;;;;;;;;;;5076943;28;20411;-76
2022/06/24 07:21:10;;;;;;;0.70;0.60;;;;;;;;;;5073839;28;20461;-76
2022/06/24 07:23:38;;;;;;;1.53;1.43;;;;;;;;;;5075075;28;20416;-75
2022/06/24 07:26:06;;;;;;;0.80;0.70;;;;;;;;;;5075251;28;20540;-76
2022/06/24 07:28:33;;;;;;;0.70;0.70;;;;;;;;;;5074386;28;20418;-76
2022/06/24 07:31:00;;;;;;;0.70;0.60;;;;;;;;;;5074335;28;20867;-76
2022/06/24 07:33:28;;;;;;;0.70;0.60;;;;;;;;;;5073820;28;20430;-78
2022/06/24 07:35:55;;;;;;;0.70;0.60;;;;;;;;;;5041942;28;20455;-78
2022/06/24 07:38:24;;;;;;;0.70;0.60;;;;;;;;;;5075641;28;20431;-76
2022/06/24 07:40:51;;;;;;;3.23;1.00;;;;;;;;;;5075095;28;20497;-76
2022/06/24 07:43:18;;;;;;;0.70;0.63;;;;;;;;;;5074357;28;20431;-78
2022/06/24 07:45:45;;;;;;;0.70;0.70;;;;;;;;;;5072760;28;20466;-78
2022/06/24 07:48:12;;;;;;;0.70;0.70;;;;;;;;;;5070274;28;20441;-78
2022/06/24 07:50:40;;;;;;;0.70;0.70;;;;;;;;;;5053643;28;20976;-78
2022/06/24 07:53:07;;;;;;;0.97;0.87;;;;;;;;;;5064336;28;20451;-79
2022/06/24 07:58:20;;;;;;;0.70;0.60;;;;;;;;;;5056093;28;20449;-78
2022/06/24 08:00:48;;;;;;;0.70;0.70;;;;;;;;;;5066188;28;20422;-78
2022/06/24 08:03:15;;;;;;;0.70;0.60;;;;;;;;;;5059151;28;20443;-78
2022/06/24 08:05:44;;;;;;;0.70;0.70;;;;;;;;;;5061280;28;20472;-77
2022/06/24 08:08:18;;;;;;;0.70;0.70;;;;;;;;;;5075885;28;20411;-77
2022/06/24 08:10:45;;;;;;;0.70;0.60;;;;;;;;;;5066683;28;20439;-75
2022/06/24 08:13:11;;;;;;;1.83;0.97;;;;;;;;;;5059400;28;20413;-78
2022/06/24 08:15:38;;;;;;;0.70;0.70;;;;;;;;;;5056386;28;20457;-78
2022/06/24 08:18:05;;;;;;;0.70;0.67;;;;;;;;;;5037668;28;20439;-78
2022/06/24 08:20:32;;;;;;;0.90;0.90;;;;;;;;;;5054425;28;20426;-77
2022/06/24 08:23:01;;;;;;;0.70;0.60;;;;;;;;;;5053732;28;20441;-78
2022/06/24 08:25:28;;;;;;;0.70;0.67;;;;;;;;;;5051541;28;20474;-77
2022/06/24 08:27:55;;;;;;;0.70;0.60;;;;;;;;;;5056539;28;20454;-77
2022/06/24 08:30:22;;;;;;;0.70;0.70;;;;;;;;;;5074399;28;20437;-77
2022/06/24 08:32:49;;;;;;;0.70;0.70;;;;;;;;;;5060559;28;20440;-74
2022/06/24 08:35:17;;;;;;;0.93;0.93;;;;;;;;;;5056274;28;20951;-77
2022/06/24 08:37:55;;;;;;;2.43;0.93;;;;;;;;;;5070830;28;20806;-77
2022/06/24 08:40:25;;;;;;;0.70;0.60;;;;;;;;;;5063288;28;20552;-78
2022/06/24 08:42:52;;;;;;;0.70;0.60;;;;;;;;;;5070945;28;20441;-78
2022/06/24 08:45:21;;;;;;;0.70;0.70;;;;;;;;;;5075593;28;20476;-78
2022/06/24 08:47:47;;;;;;;0.70;0.70;;;;;;;;;;5068989;28;20455;-77
2022/06/24 08:50:15;;;;;;;0.80;0.80;;;;;;;;;;5063511;28;20453;-77
2022/06/24 08:52:46;;;;;;;0.70;0.60;;;;;;;;;;5057474;28;20447;-77
2022/06/24 08:55:20;;;;;;;2.47;2.27;;;;;;;;;;5054605;28;20442;-78
2022/06/24 08:57:48;;;;;;;0.70;0.70;;;;;;;;;;5058669;28;20441;-78
2022/06/24 09:00:15;;;;;;;0.97;0.87;;;;;;;;;;5071238;28;20426;-78
2022/06/24 09:02:42;;;;;;;0.70;0.70;;;;;;;;;;5053099;28;20453;-77
2022/06/24 09:05:10;;;;;;;0.70;0.60;;;;;;;;;;5051467;28;20492;-77
2022/06/24 09:07:37;;;;;;;0.60;0.60;;;;;;;;;;5067271;28;20988;-77
2022/06/24 09:10:06;;;;;;;0.60;0.60;;;;;;;;;;5052363;28;20811;-77
2022/06/24 09:12:36;;;;;;;0.70;0.60;;;;;;;;;;5053543;28;20435;-77
2022/06/24 09:15:06;;;;;;;1.10;1.00;;;;;;;;;;5086173;28;20442;-78
2022/06/24 09:17:34;;;;;;;0.70;0.70;;;;;;;;;;5051672;28;20438;-77
2022/06/24 09:20:04;;;;;;;0.70;0.60;;;;;;;;;;5065412;28;20993;-77
2022/06/24 09:23:01;;;;;;;0.70;0.70;;;;;;;;;;5071885;28;20440;-77
2022/06/24 09:25:39;;;;;;;0.70;0.60;;;;;;;;;;5076056;28;20984;-77
2022/06/24 09:28:06;;;;;;;0.70;0.60;;;;;;;;;;5074135;28;20557;-77
2022/06/24 09:30:36;;;;;;;0.60;0.60;;;;;;;;;;5056166;28;20443;-77
2022/06/24 09:33:02;;;;;;;0.70;0.70;;;;;;;;;;5057588;28;20805;-77
2022/06/24 09:35:58;;;;;;;0.70;0.70;;;;;;;;;;5068013;28;20832;-77
2022/06/24 09:38:27;;;;;;;0.70;0.70;;;;;;;;;;5055063;28;20412;-77
2022/06/24 09:40:59;;;;;;;0.70;0.70;;;;;;;;;;5038968;28;20975;-76
2022/06/24 09:43:27;;;;;;;0.70;0.60;;;;;;;;;;5058286;28;20452;-76
2022/06/24 09:45:55;;;;;;;0.70;0.60;;;;;;;;;;5061071;28;20478;-76
2022/06/24 09:48:28;;;;;;;1.10;1.10;;;;;;;;;;5060660;28;20530;-76
2022/06/24 09:50:56;;;;;;;0.70;0.70;;;;;;;;;;5076873;28;20471;-76
2022/06/24 09:53:23;;;;;;;0.70;0.70;;;;;;;;;;5076632;28;20908;-76
2022/06/24 09:55:51;;;;;;;0.70;0.70;;;;;;;;;;5074447;28;20443;-76
2022/06/24 09:58:17;;;;;;;0.80;0.70;;;;;;;;;;5058362;28;20787;-76
2022/06/24 10:00:46;;;;;;;0.70;0.67;;;;;;;;;;5043832;28;20524;-75
2022/06/24 10:03:15;;;;;;;0.83;0.83;;;;;;;;;;5075611;28;20441;-75
2022/06/24 10:05:44;;;;;;;0.70;0.60;;;;;;;;;;5076796;28;20459;-75
2022/06/24 10:08:11;;;;;;;1.20;1.10;;;;;;;;;;5076642;28;20446;-75
2022/06/24 10:10:39;;;;;;;0.70;0.60;;;;;;;;;;5068406;28;20523;-76
2022/06/24 10:13:07;;;;;;;1.03;1.03;;;;;;;;;;5054792;28;20489;-75
2022/06/24 10:15:34;;;;;;;0.70;0.60;;;;;;;;;;5055169;28;20478;-75
2022/06/24 10:18:20;;;;;;;0.70;0.60;;;;;;;;;;5056840;28;20450;-76
2022/06/24 10:20:50;;;;;;;0.70;0.60;;;;;;;;;;5055310;28;20460;-75
2022/06/24 10:23:36;;;;;;;1.57;1.47;;;;;;;;;;5071878;28;20442;-76
2022/06/24 10:26:13;;;;;;;0.80;0.70;;;;;;;;;;5056701;28;20520;-76
2022/06/24 10:29:04;;;;;;;1.33;1.23;;;;;;;;;;5061811;28;20430;-76
2022/06/24 10:31:49;;;;;;;1.10;0.83;;;;;;;;;;5055580;28;20459;-76
2022/06/24 10:34:30;;;;;;;2.70;1.03;;;;;;;;;;5068419;28;20444;-76
2022/06/24 10:36:58;;;;;;;0.70;0.50;;;;;;;;;;5065828;28;20450;-76
2022/06/24 10:39:26;;;;;;;0.80;0.80;;;;;;;;;;5075237;28;20923;-77
2022/06/24 10:41:58;;;;;;;0.70;0.50;;;;;;;;;;5073590;28;20840;-77
2022/06/24 10:44:26;;;;;;;0.80;0.70;;;;;;;;;;5067995;28;20424;-76
2022/06/24 10:47:08;;;;;;;0.70;0.50;;;;;;;;;;5074224;28;21017;-77
2022/06/24 10:49:50;;;;;;;0.80;0.60;;;;;;;;;;5076096;28;20962;-77
2022/06/24 10:52:32;;;;;;;0.90;0.67;;;;;;;;;;5072762;28;20908;-76
2022/06/24 10:55:24;;;;;;;0.70;0.57;;;;;;;;;;5059788;28;20501;-78
2022/06/24 10:57:51;;;;;;;0.70;0.50;;;;;;;;;;5059560;28;20485;-77
2022/06/24 11:00:21;;;;;;;1.47;1.37;;;;;;;;;;5075447;28;20438;-77
2022/06/24 11:02:50;;;;;;;1.00;0.90;;;;;;;;;;5073923;28;20530;-79
2022/06/24 11:05:17;;;;;;;0.80;0.77;;;;;;;;;;5074238;28;20419;-77
2022/06/24 11:07:46;;;;;;;0.80;0.60;;;;;;;;;;5071972;28;20973;-78
2022/06/24 11:10:19;;;;;;;0.70;0.60;;;;;;;;;;5057826;28;20952;-79
2022/06/24 11:12:47;;;;;;;1.17;1.07;;;;;;;;;;5071990;28;20486;-79
2022/06/24 11:15:13;;;;;;;0.70;0.50;;;;;;;;;;5070313;28;20439;-78
2022/06/24 11:17:42;;;;;;;0.70;0.50;;;;;;;;;;5055627;28;20939;-77
2022/06/24 11:20:13;;;;;;;0.80;0.60;;;;;;;;;;5055321;28;20494;-77
2022/06/24 11:22:41;;;;;;;1.03;0.90;;;;;;;;;;5053820;28;20452;-79
2022/06/24 11:25:10;;;;;;;0.90;0.70;;;;;;;;;;5054060;28;20432;-79
2022/06/24 11:27:37;;;;;;;0.80;0.80;;;;;;;;;;5071107;28;20419;-78
2022/06/24 11:30:05;;;;;;;1.20;0.97;;;;;;;;;;5074174;28;20435;-79
2022/06/24 11:32:55;;;;;;;1.20;1.00;;;;;;;;;;5062135;28;20439;-79
2022/06/24 11:35:23;;;;;;;0.70;0.60;;;;;;;;;;5055282;28;20770;-79
2022/06/24 11:37:50;;;;;;;0.80;0.70;;;;;;;;;;5070364;28;20474;-79
2022/06/24 11:40:21;;;;;;;0.80;0.70;;;;;;;;;;5074440;28;20463;-80
2022/06/24 11:42:48;;;;;;;0.80;0.60;;;;;;;;;;5070088;28;20448;-80
2022/06/24 11:45:15;;;;;;;0.80;0.70;;;;;;;;;;5054698;28;20502;-78
2022/06/24 11:47:46;;;;;;;0.90;0.80;;;;;;;;;;5053570;28;20930;-79
2022/06/24 11:50:22;;;;;;;0.80;0.70;;;;;;;;;;5055024;28;20450;-80
2022/06/24 11:52:50;;;;;;;0.80;0.80;;;;;;;;;;5055040;28;20930;-79
2022/06/24 11:55:25;;;;;;;0.80;0.80;;;;;;;;;;5053993;28;20428;-79
2022/06/24 11:57:54;;;;;;;2.70;1.37;;;;;;;;;;5053341;28;20436;-80
2022/06/24 12:00:22;;;;;;;0.70;0.63;;;;;;;;;;5055059;28;20417;-79
2022/06/24 12:02:49;;;;;;;0.83;0.83;;;;;;;;;;5049905;28;20421;-80
2022/06/24 12:05:18;;;;;;;0.80;0.70;;;;;;;;;;5053310;28;20432;-80
2022/06/24 12:07:46;;;;;;;0.80;0.70;;;;;;;;;;5045618;28;20523;-80
2022/06/24 12:10:13;;;;;;;0.80;0.80;;;;;;;;;;5036174;28;20443;-81
2022/06/24 12:12:55;;;;;;;0.70;0.60;;;;;;;;;;5054473;28;20491;-80
2022/06/24 12:15:23;;;;;;;1.03;0.93;;;;;;;;;;5069540;28;20419;-80
2022/06/24 12:17:52;;;;;;;0.70;0.60;;;;;;;;;;5067303;28;20444;-81
2022/06/24 12:20:22;;;;;;;0.80;0.60;;;;;;;;;;5052198;28;20416;-79
2022/06/24 12:23:08;;;;;;;0.70;0.50;;;;;;;;;;5052253;28;20505;-79
2022/06/24 12:25:41;;;;;;;0.77;0.63;;;;;;;;;;5053216;28;20451;-78
2022/06/24 12:28:17;;;;;;;0.80;0.60;;;;;;;;;;5058009;28;20438;-79
2022/06/24 12:30:56;;;;;;;0.70;0.57;;;;;;;;;;5055403;28;20447;-79
2022/06/24 12:33:24;;;;;;;0.77;0.60;;;;;;;;;;5055432;28;20848;-79
2022/06/24 12:36:12;;;;;;;0.70;0.60;;;;;;;;;;5063763;28;20451;-78
2022/06/24 12:38:43;;;;;;;0.80;0.63;;;;;;;;;;5064136;28;20510;-78
2022/06/24 12:41:12;;;;;;;0.73;0.60;;;;;;;;;;5052883;28;20447;-80
2022/06/24 12:43:57;;;;;;;0.90;0.80;;;;;;;;;;5053251;28;20424;-79
2022/06/24 12:46:25;;;;;;;1.00;0.90;;;;;;;;;;5036200;28;20882;-79
2022/06/24 12:51:44;;;;;;;0.73;0.60;;;;;;;;;;5072010;28;20463;-79
2022/06/24 12:54:13;;;;;;;0.80;0.60;;;;;;;;;;5072625;28;20447;-79
2022/06/24 12:56:40;;;;;;;0.77;0.70;;;;;;;;;;5068046;28;20415;-79
2022/06/24 12:59:09;;;;;;;0.80;0.80;;;;;;;;;;5062244;28;20439;-79
2022/06/24 13:01:41;;;;;;;0.70;0.60;;;;;;;;;;5061674;28;20424;-79
2022/06/24 13:04:08;;;;;;;0.83;0.83;;;;;;;;;;5061272;28;20420;-79
2022/06/24 13:06:35;;;;;;;1.10;0.80;;;;;;;;;;5064298;28;20822;-79
2022/06/24 13:09:03;;;;;;;0.80;0.70;;;;;;;;;;5064317;28;20496;-79
2022/06/24 13:11:30;;;;;;;0.97;0.87;;;;;;;;;;5036660;28;20428;-79
2022/06/24 13:13:57;;;;;;;0.80;0.80;;;;;;;;;;5035773;28;20432;-79
2022/06/24 13:16:25;;;;;;;0.70;0.60;;;;;;;;;;5046994;28;20423;-79
2022/06/24 13:18:52;;;;;;;0.70;0.60;;;;;;;;;;5068587;28;20428;-79
2022/06/24 13:21:21;;;;;;;0.70;0.50;;;;;;;;;;5052727;28;20995;-79
2022/06/24 13:27:48;;;;;;;0.70;0.60;;;;;;;;;;5058747;28;20566;-79
2022/06/24 13:30:15;;;;;;;0.70;0.60;;;;;;;;;;5070190;28;20481;-78
2022/06/24 13:32:43;;;;;;;0.80;0.77;;;;;;;;;;5055527;28;20435;-80
2022/06/24 13:35:12;;;;;;;1.03;0.90;;;;;;;;;;5056079;28;20535;-79
2022/06/24 13:37:38;;;;;;;1.13;0.90;;;;;;;;;;5055024;28;20943;-79
2022/06/24 13:40:07;;;;;;;0.80;0.80;;;;;;;;;;5052324;28;20456;-79
2022/06/24 13:42:36;;;;;;;0.80;0.70;;;;;;;;;;5055736;28;20900;-79
2022/06/24 13:45:03;;;;;;;6.47;1.23;;;;;;;;;;5055111;28;20412;-77
2022/06/24 13:47:30;;;;;;;0.90;0.67;;;;;;;;;;5056669;28;20459;-77
2022/06/24 13:50:00;;;;;;;0.70;0.60;;;;;;;;;;5058366;28;20443;-77
2022/06/24 13:52:27;;;;;;;0.70;0.50;;;;;;;;;;5056977;28;20505;-77
2022/06/24 13:54:58;;;;;;;0.90;0.80;;;;;;;;;;5072690;28;20435;-77
2022/06/24 13:57:25;;;;;;;0.80;0.70;;;;;;;;;;5073356;28;20423;-77
2022/06/24 13:59:52;;;;;;;0.80;0.60;;;;;;;;;;5074975;28;20500;-77
2022/06/24 14:02:20;;;;;;;0.70;0.60;;;;;;;;;;5071209;28;20422;-77
2022/06/24 14:04:56;;;;;;;0.90;0.60;;;;;;;;;;5047105;28;20534;-77
2022/06/24 14:07:26;;;;;;;0.70;0.60;;;;;;;;;;5038046;28;20847;-77
2022/06/24 14:09:53;;;;;;;0.73;0.60;;;;;;;;;;5057877;28;20427;-77
2022/06/24 14:12:40;;;;;;;0.70;0.50;;;;;;;;;;5056801;28;20431;-76
2022/06/24 14:15:11;;;;;;;1.10;1.00;;;;;;;;;;5071374;28;20717;-77
2022/06/24 14:17:38;;;;;;;0.80;0.60;;;;;;;;;;5059526;28;20480;-78
2022/06/24 14:20:05;;;;;;;0.70;0.53;;;;;;;;;;5075054;28;20806;-76
2022/06/24 14:22:35;;;;;;;0.80;0.70;;;;;;;;;;5074971;28;20501;-76
2022/06/24 14:25:02;;;;;;;0.70;0.60;;;;;;;;;;5076230;28;20526;-77
2022/06/24 14:27:30;;;;;;;1.07;0.70;;;;;;;;;;5058731;28;20988;-78
2022/06/24 14:29:57;;;;;;;0.90;0.80;;;;;;;;;;5055377;28;20416;-78
2022/06/24 14:32:24;;;;;;;0.70;0.50;;;;;;;;;;5061709;28;20440;-78
2022/06/24 14:34:51;;;;;;;0.80;0.63;;;;;;;;;;5039940;28;20448;-78
2022/06/24 14:40:12;;;;;;;0.70;0.60;;;;;;;;;;5075107;28;20439;-78
2022/06/24 14:42:59;;;;;;;0.70;0.60;;;;;;;;;;5074183;28;20435;-78
2022/06/24 14:45:26;;;;;;;0.70;0.50;;;;;;;;;;5074536;28;20419;-79
2022/06/24 14:47:53;;;;;;;0.70;0.60;;;;;;;;;;5057636;28;20466;-77
2022/06/24 14:50:19;;;;;;;1.27;0.80;;;;;;;;;;5057283;28;20458;-77
2022/06/24 14:52:46;;;;;;;0.80;0.80;;;;;;;;;;5074488;28;20447;-78
2022/06/24 14:55:22;;;;;;;0.70;0.60;;;;;;;;;;5065412;28;20797;-78
2022/06/24 14:57:50;;;;;;;0.80;0.60;;;;;;;;;;5062732;28;20514;-78
2022/06/24 15:00:17;;;;;;;1.73;1.63;;;;;;;;;;5068757;28;20924;-78
2022/06/24 15:02:43;;;;;;;0.80;0.70;;;;;;;;;;5067018;28;20904;-79
2022/06/24 15:05:12;;;;;;;1.50;1.00;;;;;;;;;;5073519;28;20496;-78
2022/06/24 15:07:41;;;;;;;0.93;0.90;;;;;;;;;;5070050;28;20447;-77
2022/06/24 15:10:07;;;;;;;1.30;1.20;;;;;;;;;;5055512;28;20420;-78
2022/06/24 15:12:38;;;;;;;1.00;0.80;;;;;;;;;;5054486;28;20426;-79
2022/06/24 15:15:05;;;;;;;1.33;1.23;;;;;;;;;;5054438;28;20406;-79
2022/06/24 15:17:32;;;;;;;0.90;0.90;;;;;;;;;;5065054;28;20500;-78